LKMT/OSR METAR and TAF weather

Enter ICAO airport designator
Station Type Date Time Source
LKMT METAR 2018/12/17 02:30 UTC NOAA

LKMT 170230Z 21009KT 9999 BKN023 OVC044 M01/M05 Q1018 NOSIG


Station Type Date Time Source
LKMT Decoded METAR 2018/12/17 02:30 UTC NOAA

Ostrava / Mosnov, Czech Republic (LKMT) 49-41N 018-07E 256M
Dec 16, 2018 - 09:30 PM EST / 2018.12.17 0230 UTC
Wind: from the SSW (210 degrees) at 10 MPH (9 KT):0
Visibility: greater than 7 mile(s):0
Sky conditions: overcast
Temperature: 30 F (-1 C)
Windchill: 21 F (-6 C):1
Dew Point: 23 F (-5 C)
Relative Humidity: 74%
Pressure (altimeter): 30.06 in. Hg (1018 hPa)
ob: LKMT 170230Z 21009KT 9999 BKN023 OVC044 M01/M05 Q1018 NOSIG
cycle: 2

Station Type Date Time Source
LKMT TAF 2018/12/16 18:05 UTC NOAA

TAF LKMT 161700Z 1618/1800 22006KT 8000 BKN023
TEMPO 1618/1800 BKN013 PROB30
TEMPO 1622/1707 -SN


Example: see airport list